sensor_id;sensor_type;location;lat;lon;timestamp;P1;durP1;ratioP1;P2;durP2;ratioP2
6203;SDS011;3135;42.602;23.468;2023-01-05T00:01:00;22.00;;;9.83;;
6203;SDS011;3135;42.602;23.468;2023-01-05T00:03:27;22.35;;;9.40;;
6203;SDS011;3135;42.602;23.468;2023-01-05T00:05:57;21.37;;;9.13;;
6203;SDS011;3135;42.602;23.468;2023-01-05T00:08:23;23.60;;;9.95;;
6203;SDS011;3135;42.602;23.468;2023-01-05T00:10:49;23.40;;;9.47;;
6203;SDS011;3135;42.602;23.468;2023-01-05T00:13:32;25.30;;;11.00;;
6203;SDS011;3135;42.602;23.468;2023-01-05T00:16:27;21.70;;;9.40;;
6203;SDS011;3135;42.602;23.468;2023-01-05T00:19:11;25.95;;;10.60;;
6203;SDS011;3135;42.602;23.468;2023-01-05T00:21:56;30.00;;;11.80;;
6203;SDS011;3135;42.602;23.468;2023-01-05T00:24:40;33.83;;;13.43;;
6203;SDS011;3135;42.602;23.468;2023-01-05T00:27:06;35.17;;;14.15;;
6203;SDS011;3135;42.602;23.468;2023-01-05T00:29:31;33.67;;;13.73;;
6203;SDS011;3135;42.602;23.468;2023-01-05T00:31:57;30.83;;;13.13;;
6203;SDS011;3135;42.602;23.468;2023-01-05T00:34:22;41.33;;;15.63;;
6203;SDS011;3135;42.602;23.468;2023-01-05T00:36:47;36.63;;;14.77;;
6203;SDS011;3135;42.602;23.468;2023-01-05T00:39:13;41.23;;;15.30;;
6203;SDS011;3135;42.602;23.468;2023-01-05T00:41:38;36.93;;;14.90;;
6203;SDS011;3135;42.602;23.468;2023-01-05T00:44:04;42.00;;;16.13;;
6203;SDS011;3135;42.602;23.468;2023-01-05T00:46:29;43.83;;;17.47;;
6203;SDS011;3135;42.602;23.468;2023-01-05T00:48:55;40.72;;;17.33;;
6203;SDS011;3135;42.602;23.468;2023-01-05T00:51:21;43.67;;;16.97;;
6203;SDS011;3135;42.602;23.468;2023-01-05T00:53:47;37.53;;;16.10;;
6203;SDS011;3135;42.602;23.468;2023-01-05T00:56:12;34.90;;;14.05;;
6203;SDS011;3135;42.602;23.468;2023-01-05T00:58:38;39.73;;;16.37;;
6203;SDS011;3135;42.602;23.468;2023-01-05T01:01:07;35.67;;;14.77;;
6203;SDS011;3135;42.602;23.468;2023-01-05T01:03:36;41.05;;;15.43;;
6203;SDS011;3135;42.602;23.468;2023-01-05T01:06:02;38.03;;;14.70;;
6203;SDS011;3135;42.602;23.468;2023-01-05T01:08:27;34.37;;;13.97;;
6203;SDS011;3135;42.602;23.468;2023-01-05T01:10:53;33.23;;;13.17;;
6203;SDS011;3135;42.602;23.468;2023-01-05T01:13:18;32.83;;;12.80;;
6203;SDS011;3135;42.602;23.468;2023-01-05T01:15:43;50.00;;;18.50;;
6203;SDS011;3135;42.602;23.468;2023-01-05T01:18:09;41.57;;;16.63;;
6203;SDS011;3135;42.602;23.468;2023-01-05T01:20:35;30.30;;;12.73;;
6203;SDS011;3135;42.602;23.468;2023-01-05T01:23:01;26.52;;;10.57;;
6203;SDS011;3135;42.602;23.468;2023-01-05T01:25:28;23.80;;;10.20;;
6203;SDS011;3135;42.602;23.468;2023-01-05T01:27:54;29.00;;;10.63;;
6203;SDS011;3135;42.602;23.468;2023-01-05T01:30:19;26.27;;;10.20;;
6203;SDS011;3135;42.602;23.468;2023-01-05T01:32:45;26.92;;;10.43;;
6203;SDS011;3135;42.602;23.468;2023-01-05T01:35:10;28.13;;;11.10;;
6203;SDS011;3135;42.602;23.468;2023-01-05T01:37:36;24.65;;;10.05;;
6203;SDS011;3135;42.602;23.468;2023-01-05T01:40:01;25.83;;;10.87;;
6203;SDS011;3135;42.602;23.468;2023-01-05T01:42:27;23.83;;;9.93;;
6203;SDS011;3135;42.602;23.468;2023-01-05T01:44:53;25.13;;;10.63;;
6203;SDS011;3135;42.602;23.468;2023-01-05T01:48:06;23.60;;;9.50;;
6203;SDS011;3135;42.602;23.468;2023-01-05T01:50:44;22.45;;;10.05;;
6203;SDS011;3135;42.602;23.468;2023-01-05T01:53:13;27.17;;;11.23;;
6203;SDS011;3135;42.602;23.468;2023-01-05T01:55:46;26.33;;;11.40;;
6203;SDS011;3135;42.602;23.468;2023-01-05T01:58:12;24.90;;;10.63;;
6203;SDS011;3135;42.602;23.468;2023-01-05T02:00:40;26.92;;;10.98;;
6203;SDS011;3135;42.602;23.468;2023-01-05T02:03:06;26.67;;;11.13;;
6203;SDS011;3135;42.602;23.468;2023-01-05T02:05:33;28.10;;;11.10;;
6203;SDS011;3135;42.602;23.468;2023-01-05T02:08:01;34.17;;;13.80;;
6203;SDS011;3135;42.602;23.468;2023-01-05T02:13:12;42.85;;;17.52;;
6203;SDS011;3135;42.602;23.468;2023-01-05T02:16:20;42.75;;;16.90;;
6203;SDS011;3135;42.602;23.468;2023-01-05T02:40:36;33.47;;;14.30;;
6203;SDS011;3135;42.602;23.468;2023-01-05T02:43:07;36.35;;;15.68;;
6203;SDS011;3135;42.602;23.468;2023-01-05T02:45:34;33.22;;;14.27;;
6203;SDS011;3135;42.602;23.468;2023-01-05T02:48:00;35.87;;;14.27;;
6203;SDS011;3135;42.602;23.468;2023-01-05T02:50:34;32.33;;;14.03;;
6203;SDS011;3135;42.602;23.468;2023-01-05T02:53:18;30.05;;;13.43;;
6203;SDS011;3135;42.602;23.468;2023-01-05T02:55:50;40.22;;;15.13;;
6203;SDS011;3135;42.602;23.468;2023-01-05T02:58:22;33.30;;;13.80;;
6203;SDS011;3135;42.602;23.468;2023-01-05T03:00:59;35.87;;;14.00;;
6203;SDS011;3135;42.602;23.468;2023-01-05T03:03:29;29.55;;;12.55;;
6203;SDS011;3135;42.602;23.468;2023-01-05T03:06:07;35.92;;;14.18;;
6203;SDS011;3135;42.602;23.468;2023-01-05T03:08:35;38.92;;;14.35;;
6203;SDS011;3135;42.602;23.468;2023-01-05T03:11:08;34.72;;;13.93;;
6203;SDS011;3135;42.602;23.468;2023-01-05T03:14:02;36.58;;;14.18;;
6203;SDS011;3135;42.602;23.468;2023-01-05T03:16:35;35.42;;;14.68;;
6203;SDS011;3135;42.602;23.468;2023-01-05T03:19:06;33.47;;;13.50;;
6203;SDS011;3135;42.602;23.468;2023-01-05T03:21:56;35.92;;;13.90;;
6203;SDS011;3135;42.602;23.468;2023-01-05T03:24:42;30.60;;;13.07;;
6203;SDS011;3135;42.602;23.468;2023-01-05T03:27:28;27.13;;;11.27;;
6203;SDS011;3135;42.602;23.468;2023-01-05T03:30:13;25.20;;;9.80;;
6203;SDS011;3135;42.602;23.468;2023-01-05T03:33:00;18.77;;;8.45;;
6203;SDS011;3135;42.602;23.468;2023-01-05T03:36:01;18.10;;;7.57;;
6203;SDS011;3135;42.602;23.468;2023-01-05T03:38:31;16.30;;;7.72;;
6203;SDS011;3135;42.602;23.468;2023-01-05T03:41:02;18.27;;;7.68;;
6203;SDS011;3135;42.602;23.468;2023-01-05T03:43:34;17.38;;;8.27;;
6203;SDS011;3135;42.602;23.468;2023-01-05T03:46:00;17.65;;;8.10;;
6203;SDS011;3135;42.602;23.468;2023-01-05T03:48:37;19.63;;;9.07;;
6203;SDS011;3135;42.602;23.468;2023-01-05T03:51:03;20.50;;;8.18;;
6203;SDS011;3135;42.602;23.468;2023-01-05T03:53:29;19.67;;;8.90;;
6203;SDS011;3135;42.602;23.468;2023-01-05T03:55:54;20.45;;;9.40;;
6203;SDS011;3135;42.602;23.468;2023-01-05T03:58:20;23.80;;;9.50;;
6203;SDS011;3135;42.602;23.468;2023-01-05T04:00:45;23.77;;;8.57;;
6203;SDS011;3135;42.602;23.468;2023-01-05T04:03:11;19.92;;;9.45;;
6203;SDS011;3135;42.602;23.468;2023-01-05T04:05:36;22.13;;;9.25;;
6203;SDS011;3135;42.602;23.468;2023-01-05T04:08:01;25.42;;;11.48;;
6203;SDS011;3135;42.602;23.468;2023-01-05T04:10:27;26.40;;;12.38;;
6203;SDS011;3135;42.602;23.468;2023-01-05T04:12:52;26.73;;;11.70;;
6203;SDS011;3135;42.602;23.468;2023-01-05T04:15:18;19.93;;;9.40;;
6203;SDS011;3135;42.602;23.468;2023-01-05T04:17:43;20.17;;;9.17;;
6203;SDS011;3135;42.602;23.468;2023-01-05T04:20:09;27.10;;;13.17;;
6203;SDS011;3135;42.602;23.468;2023-01-05T04:22:35;23.90;;;11.00;;
6203;SDS011;3135;42.602;23.468;2023-01-05T04:25:00;20.77;;;10.50;;
6203;SDS011;3135;42.602;23.468;2023-01-05T04:27:26;23.93;;;10.43;;
6203;SDS011;3135;42.602;23.468;2023-01-05T04:29:51;21.67;;;9.97;;
6203;SDS011;3135;42.602;23.468;2023-01-05T04:32:16;40.03;;;15.00;;
6203;SDS011;3135;42.602;23.468;2023-01-05T04:34:42;38.93;;;14.63;;
6203;SDS011;3135;42.602;23.468;2023-01-05T04:37:07;28.67;;;11.87;;
6203;SDS011;3135;42.602;23.468;2023-01-05T04:39:33;30.90;;;12.53;;
6203;SDS011;3135;42.602;23.468;2023-01-05T04:41:58;30.23;;;11.80;;
6203;SDS011;3135;42.602;23.468;2023-01-05T04:44:24;36.17;;;15.00;;
6203;SDS011;3135;42.602;23.468;2023-01-05T04:46:49;202.30;;;52.43;;
6203;SDS011;3135;42.602;23.468;2023-01-05T04:49:14;111.70;;;34.03;;
6203;SDS011;3135;42.602;23.468;2023-01-05T04:51:40;57.90;;;21.00;;
6203;SDS011;3135;42.602;23.468;2023-01-05T04:54:05;51.33;;;18.83;;
6203;SDS011;3135;42.602;23.468;2023-01-05T04:56:31;58.37;;;21.63;;
6203;SDS011;3135;42.602;23.468;2023-01-05T04:58:56;44.60;;;16.30;;
6203;SDS011;3135;42.602;23.468;2023-01-05T05:01:21;27.47;;;11.13;;
6203;SDS011;3135;42.602;23.468;2023-01-05T05:03:47;24.90;;;11.00;;
6203;SDS011;3135;42.602;23.468;2023-01-05T05:06:12;24.80;;;10.83;;
6203;SDS011;3135;42.602;23.468;2023-01-05T05:08:38;23.07;;;10.10;;
6203;SDS011;3135;42.602;23.468;2023-01-05T05:11:03;22.53;;;9.27;;
6203;SDS011;3135;42.602;23.468;2023-01-05T05:13:29;19.73;;;9.07;;
6203;SDS011;3135;42.602;23.468;2023-01-05T05:15:55;24.77;;;9.87;;
6203;SDS011;3135;42.602;23.468;2023-01-05T05:18:20;23.90;;;9.83;;
6203;SDS011;3135;42.602;23.468;2023-01-05T05:20:46;22.73;;;9.73;;
6203;SDS011;3135;42.602;23.468;2023-01-05T05:23:13;24.00;;;10.15;;
6203;SDS011;3135;42.602;23.468;2023-01-05T05:25:39;22.70;;;9.65;;
6203;SDS011;3135;42.602;23.468;2023-01-05T05:28:04;22.80;;;10.40;;
6203;SDS011;3135;42.602;23.468;2023-01-05T05:30:30;24.88;;;9.65;;
6203;SDS011;3135;42.602;23.468;2023-01-05T05:32:55;24.20;;;9.77;;
6203;SDS011;3135;42.602;23.468;2023-01-05T05:35:20;22.10;;;9.20;;
6203;SDS011;3135;42.602;23.468;2023-01-05T05:37:46;24.97;;;9.83;;
6203;SDS011;3135;42.602;23.468;2023-01-05T05:40:11;25.93;;;10.47;;
6203;SDS011;3135;42.602;23.468;2023-01-05T05:42:37;25.73;;;10.97;;
6203;SDS011;3135;42.602;23.468;2023-01-05T05:45:02;28.57;;;11.90;;
6203;SDS011;3135;42.602;23.468;2023-01-05T05:47:28;31.63;;;12.03;;
6203;SDS011;3135;42.602;23.468;2023-01-05T05:49:53;26.27;;;11.23;;
6203;SDS011;3135;42.602;23.468;2023-01-05T05:52:19;29.00;;;11.73;;
6203;SDS011;3135;42.602;23.468;2023-01-05T05:54:44;29.10;;;11.53;;
6203;SDS011;3135;42.602;23.468;2023-01-05T05:57:10;32.03;;;12.38;;
6203;SDS011;3135;42.602;23.468;2023-01-05T05:59:35;30.40;;;11.93;;
6203;SDS011;3135;42.602;23.468;2023-01-05T06:02:01;39.55;;;14.57;;
6203;SDS011;3135;42.602;23.468;2023-01-05T06:04:26;67.35;;;22.20;;
6203;SDS011;3135;42.602;23.468;2023-01-05T06:06:51;85.30;;;24.90;;
6203;SDS011;3135;42.602;23.468;2023-01-05T06:09:17;62.97;;;22.00;;
6203;SDS011;3135;42.602;23.468;2023-01-05T06:11:42;35.73;;;14.70;;
6203;SDS011;3135;42.602;23.468;2023-01-05T06:14:08;29.50;;;12.38;;
6203;SDS011;3135;42.602;23.468;2023-01-05T06:16:34;28.60;;;11.77;;
6203;SDS011;3135;42.602;23.468;2023-01-05T06:18:59;26.08;;;10.30;;
6203;SDS011;3135;42.602;23.468;2023-01-05T06:21:25;22.00;;;9.10;;
6203;SDS011;3135;42.602;23.468;2023-01-05T06:23:50;21.27;;;9.60;;
6203;SDS011;3135;42.602;23.468;2023-01-05T06:26:16;17.27;;;8.13;;
6203;SDS011;3135;42.602;23.468;2023-01-05T06:28:41;16.40;;;8.20;;
6203;SDS011;3135;42.602;23.468;2023-01-05T06:31:07;21.50;;;9.40;;
6203;SDS011;3135;42.602;23.468;2023-01-05T06:33:32;19.10;;;8.87;;
6203;SDS011;3135;42.602;23.468;2023-01-05T06:35:58;16.03;;;8.27;;
6203;SDS011;3135;42.602;23.468;2023-01-05T06:38:23;17.23;;;8.27;;
6203;SDS011;3135;42.602;23.468;2023-01-05T06:40:50;21.58;;;10.50;;
6203;SDS011;3135;42.602;23.468;2023-01-05T06:43:15;17.63;;;8.10;;
6203;SDS011;3135;42.602;23.468;2023-01-05T06:45:41;15.67;;;6.97;;
6203;SDS011;3135;42.602;23.468;2023-01-05T06:48:06;14.63;;;7.30;;
6203;SDS011;3135;42.602;23.468;2023-01-05T06:50:32;17.53;;;7.93;;
6203;SDS011;3135;42.602;23.468;2023-01-05T06:52:58;25.45;;;11.55;;
6203;SDS011;3135;42.602;23.468;2023-01-05T06:55:24;19.55;;;8.65;;
6203;SDS011;3135;42.602;23.468;2023-01-05T06:57:49;19.20;;;8.40;;
6203;SDS011;3135;42.602;23.468;2023-01-05T07:00:15;19.83;;;9.02;;
6203;SDS011;3135;42.602;23.468;2023-01-05T07:02:41;16.50;;;7.43;;
6203;SDS011;3135;42.602;23.468;2023-01-05T07:05:07;23.95;;;11.18;;
6203;SDS011;3135;42.602;23.468;2023-01-05T07:07:33;25.47;;;12.00;;
6203;SDS011;3135;42.602;23.468;2023-01-05T07:09:58;23.33;;;10.65;;
6203;SDS011;3135;42.602;23.468;2023-01-05T07:12:24;23.80;;;10.07;;
6203;SDS011;3135;42.602;23.468;2023-01-05T07:14:50;26.53;;;10.23;;
6203;SDS011;3135;42.602;23.468;2023-01-05T07:17:15;25.70;;;10.73;;
6203;SDS011;3135;42.602;23.468;2023-01-05T07:19:41;34.45;;;13.68;;
6203;SDS011;3135;42.602;23.468;2023-01-05T07:22:06;36.17;;;13.67;;
6203;SDS011;3135;42.602;23.468;2023-01-05T07:24:32;37.10;;;14.23;;
6203;SDS011;3135;42.602;23.468;2023-01-05T07:26:58;30.00;;;12.30;;
6203;SDS011;3135;42.602;23.468;2023-01-05T07:29:24;65.60;;;22.10;;
6203;SDS011;3135;42.602;23.468;2023-01-05T07:31:49;65.53;;;23.75;;
6203;SDS011;3135;42.602;23.468;2023-01-05T07:34:18;72.40;;;24.48;;
6203;SDS011;3135;42.602;23.468;2023-01-05T07:36:44;77.32;;;27.80;;
6203;SDS011;3135;42.602;23.468;2023-01-05T07:39:09;67.70;;;26.70;;
6203;SDS011;3135;42.602;23.468;2023-01-05T07:41:35;71.83;;;25.60;;
6203;SDS011;3135;42.602;23.468;2023-01-05T07:44:00;52.40;;;21.05;;
6203;SDS011;3135;42.602;23.468;2023-01-05T07:46:26;45.80;;;18.85;;
6203;SDS011;3135;42.602;23.468;2023-01-05T07:48:51;49.22;;;20.35;;
6203;SDS011;3135;42.602;23.468;2023-01-05T07:51:16;61.95;;;23.63;;
6203;SDS011;3135;42.602;23.468;2023-01-05T07:53:42;39.72;;;16.17;;
6203;SDS011;3135;42.602;23.468;2023-01-05T07:56:07;32.47;;;13.30;;
6203;SDS011;3135;42.602;23.468;2023-01-05T07:58:34;32.67;;;13.20;;
6203;SDS011;3135;42.602;23.468;2023-01-05T08:01:06;27.60;;;11.83;;
6203;SDS011;3135;42.602;23.468;2023-01-05T08:03:34;40.63;;;17.33;;
6203;SDS011;3135;42.602;23.468;2023-01-05T08:06:20;43.30;;;17.92;;
6203;SDS011;3135;42.602;23.468;2023-01-05T08:08:45;45.75;;;18.80;;
6203;SDS011;3135;42.602;23.468;2023-01-05T08:11:12;42.03;;;17.33;;
6203;SDS011;3135;42.602;23.468;2023-01-05T08:13:42;38.20;;;15.75;;
6203;SDS011;3135;42.602;23.468;2023-01-05T08:16:24;33.95;;;13.95;;
6203;SDS011;3135;42.602;23.468;2023-01-05T08:18:50;36.35;;;15.63;;
6203;SDS011;3135;42.602;23.468;2023-01-05T08:21:16;37.77;;;15.63;;
6203;SDS011;3135;42.602;23.468;2023-01-05T08:23:41;34.93;;;14.23;;
6203;SDS011;3135;42.602;23.468;2023-01-05T08:26:11;31.43;;;12.93;;
6203;SDS011;3135;42.602;23.468;2023-01-05T08:28:39;29.40;;;13.73;;
6203;SDS011;3135;42.602;23.468;2023-01-05T08:31:07;30.30;;;12.55;;
6203;SDS011;3135;42.602;23.468;2023-01-05T08:33:35;27.63;;;11.90;;
6203;SDS011;3135;42.602;23.468;2023-01-05T08:36:00;28.37;;;11.63;;
6203;SDS011;3135;42.602;23.468;2023-01-05T08:38:26;29.17;;;11.20;;
6203;SDS011;3135;42.602;23.468;2023-01-05T08:40:51;27.58;;;11.63;;
6203;SDS011;3135;42.602;23.468;2023-01-05T08:43:17;27.63;;;11.47;;
6203;SDS011;3135;42.602;23.468;2023-01-05T08:45:46;31.33;;;12.63;;
6203;SDS011;3135;42.602;23.468;2023-01-05T08:48:12;28.08;;;11.23;;
6203;SDS011;3135;42.602;23.468;2023-01-05T08:50:37;35.37;;;14.10;;
6203;SDS011;3135;42.602;23.468;2023-01-05T08:53:03;31.53;;;13.27;;
6203;SDS011;3135;42.602;23.468;2023-01-05T08:55:29;31.53;;;12.50;;
6203;SDS011;3135;42.602;23.468;2023-01-05T08:57:54;34.63;;;13.93;;
6203;SDS011;3135;42.602;23.468;2023-01-05T09:00:20;33.90;;;13.73;;
6203;SDS011;3135;42.602;23.468;2023-01-05T09:02:46;30.50;;;12.93;;
6203;SDS011;3135;42.602;23.468;2023-01-05T09:05:12;35.83;;;13.55;;
6203;SDS011;3135;42.602;23.468;2023-01-05T09:07:37;58.30;;;20.93;;
6203;SDS011;3135;42.602;23.468;2023-01-05T09:10:03;39.93;;;15.77;;
6203;SDS011;3135;42.602;23.468;2023-01-05T09:12:30;30.10;;;12.77;;
6203;SDS011;3135;42.602;23.468;2023-01-05T09:14:55;26.58;;;11.10;;
6203;SDS011;3135;42.602;23.468;2023-01-05T09:17:20;27.45;;;11.63;;
6203;SDS011;3135;42.602;23.468;2023-01-05T09:19:46;28.63;;;11.65;;
6203;SDS011;3135;42.602;23.468;2023-01-05T09:22:11;27.40;;;11.13;;
6203;SDS011;3135;42.602;23.468;2023-01-05T09:24:37;29.48;;;11.77;;
6203;SDS011;3135;42.602;23.468;2023-01-05T09:27:03;27.98;;;12.30;;
6203;SDS011;3135;42.602;23.468;2023-01-05T09:29:29;24.42;;;11.45;;
6203;SDS011;3135;42.602;23.468;2023-01-05T09:31:55;22.33;;;9.70;;
6203;SDS011;3135;42.602;23.468;2023-01-05T09:34:20;27.47;;;11.37;;
6203;SDS011;3135;42.602;23.468;2023-01-05T09:36:46;21.73;;;9.17;;
6203;SDS011;3135;42.602;23.468;2023-01-05T09:39:11;20.53;;;9.87;;
6203;SDS011;3135;42.602;23.468;2023-01-05T09:41:41;25.10;;;10.57;;
6203;SDS011;3135;42.602;23.468;2023-01-05T09:44:25;28.33;;;11.82;;
6203;SDS011;3135;42.602;23.468;2023-01-05T09:46:52;28.88;;;13.13;;
6203;SDS011;3135;42.602;23.468;2023-01-05T09:49:20;26.55;;;11.98;;
6203;SDS011;3135;42.602;23.468;2023-01-05T09:51:49;28.42;;;11.85;;
6203;SDS011;3135;42.602;23.468;2023-01-05T09:54:22;32.00;;;13.65;;
6203;SDS011;3135;42.602;23.468;2023-01-05T09:56:52;35.47;;;15.10;;
6203;SDS011;3135;42.602;23.468;2023-01-05T09:59:20;36.83;;;14.90;;
6203;SDS011;3135;42.602;23.468;2023-01-05T10:01:50;40.95;;;15.82;;
6203;SDS011;3135;42.602;23.468;2023-01-05T10:04:19;29.70;;;12.18;;
6203;SDS011;3135;42.602;23.468;2023-01-05T10:06:51;32.38;;;12.90;;
6203;SDS011;3135;42.602;23.468;2023-01-05T10:09:20;33.25;;;13.93;;
6203;SDS011;3135;42.602;23.468;2023-01-05T10:12:03;31.00;;;13.63;;
6203;SDS011;3135;42.602;23.468;2023-01-05T10:17:51;28.08;;;11.23;;
6203;SDS011;3135;42.602;23.468;2023-01-05T10:20:18;24.33;;;11.13;;
6203;SDS011;3135;42.602;23.468;2023-01-05T10:22:55;29.60;;;13.25;;
6203;SDS011;3135;42.602;23.468;2023-01-05T10:30:59;28.88;;;12.05;;
6203;SDS011;3135;42.602;23.468;2023-01-05T10:44:39;27.05;;;11.98;;
6203;SDS011;3135;42.602;23.468;2023-01-05T10:47:34;26.05;;;11.70;;
6203;SDS011;3135;42.602;23.468;2023-01-05T10:50:02;33.47;;;15.32;;
6203;SDS011;3135;42.602;23.468;2023-01-05T10:52:42;30.05;;;12.60;;
6203;SDS011;3135;42.602;23.468;2023-01-05T10:55:12;28.23;;;12.02;;
6203;SDS011;3135;42.602;23.468;2023-01-05T10:57:40;31.33;;;13.00;;
6203;SDS011;3135;42.602;23.468;2023-01-05T11:00:19;27.65;;;11.80;;
6203;SDS011;3135;42.602;23.468;2023-01-05T11:03:03;26.35;;;11.57;;
6203;SDS011;3135;42.602;23.468;2023-01-05T11:07:57;25.27;;;11.50;;
6203;SDS011;3135;42.602;23.468;2023-01-05T11:10:33;25.17;;;11.23;;
6203;SDS011;3135;42.602;23.468;2023-01-05T11:18:45;27.60;;;11.63;;
6203;SDS011;3135;42.602;23.468;2023-01-05T11:21:21;26.65;;;11.60;;
6203;SDS011;3135;42.602;23.468;2023-01-05T11:23:49;33.90;;;13.60;;
6203;SDS011;3135;42.602;23.468;2023-01-05T11:37:01;27.33;;;11.95;;
6203;SDS011;3135;42.602;23.468;2023-01-05T11:44:49;33.10;;;13.43;;
6203;SDS011;3135;42.602;23.468;2023-01-05T11:47:18;41.53;;;15.77;;
6203;SDS011;3135;42.602;23.468;2023-01-05T11:49:48;30.20;;;12.85;;
6203;SDS011;3135;42.602;23.468;2023-01-05T11:52:29;29.85;;;13.60;;
6203;SDS011;3135;42.602;23.468;2023-01-05T11:55:14;29.45;;;13.02;;
6203;SDS011;3135;42.602;23.468;2023-01-05T11:57:47;31.10;;;13.87;;
6203;SDS011;3135;42.602;23.468;2023-01-05T12:00:27;27.67;;;11.90;;
6203;SDS011;3135;42.602;23.468;2023-01-05T12:05:32;25.17;;;11.15;;
6203;SDS011;3135;42.602;23.468;2023-01-05T12:08:09;29.15;;;11.35;;
6203;SDS011;3135;42.602;23.468;2023-01-05T12:21:30;27.35;;;11.73;;
6203;SDS011;3135;42.602;23.468;2023-01-05T12:49:45;22.65;;;10.85;;
6203;SDS011;3135;42.602;23.468;2023-01-05T12:52:23;23.90;;;11.00;;
6203;SDS011;3135;42.602;23.468;2023-01-05T12:55:13;23.35;;;9.95;;
6203;SDS011;3135;42.602;23.468;2023-01-05T12:57:40;20.30;;;9.90;;
6203;SDS011;3135;42.602;23.468;2023-01-05T13:00:17;27.33;;;10.10;;
6203;SDS011;3135;42.602;23.468;2023-01-05T13:02:54;27.77;;;10.60;;
6203;SDS011;3135;42.602;23.468;2023-01-05T13:08:06;28.93;;;11.90;;
6203;SDS011;3135;42.602;23.468;2023-01-05T13:10:44;26.60;;;11.35;;
6203;SDS011;3135;42.602;23.468;2023-01-05T13:13:19;25.33;;;10.93;;
6203;SDS011;3135;42.602;23.468;2023-01-05T13:16:07;22.80;;;10.10;;
6203;SDS011;3135;42.602;23.468;2023-01-05T13:18:40;23.77;;;10.37;;
6203;SDS011;3135;42.602;23.468;2023-01-05T13:21:11;22.50;;;10.17;;
6203;SDS011;3135;42.602;23.468;2023-01-05T13:23:42;22.35;;;10.43;;
6203;SDS011;3135;42.602;23.468;2023-01-05T13:26:18;28.60;;;13.48;;
6203;SDS011;3135;42.602;23.468;2023-01-05T13:28:46;26.90;;;14.77;;
6203;SDS011;3135;42.602;23.468;2023-01-05T13:39:32;31.63;;;14.68;;
6203;SDS011;3135;42.602;23.468;2023-01-05T13:47:30;28.40;;;13.97;;
6203;SDS011;3135;42.602;23.468;2023-01-05T13:55:28;22.98;;;9.70;;
6203;SDS011;3135;42.602;23.468;2023-01-05T13:57:57;19.40;;;9.13;;
6203;SDS011;3135;42.602;23.468;2023-01-05T14:00:28;16.33;;;8.33;;
6203;SDS011;3135;42.602;23.468;2023-01-05T14:02:58;23.83;;;12.85;;
6203;SDS011;3135;42.602;23.468;2023-01-05T14:05:33;19.63;;;8.38;;
6203;SDS011;3135;42.602;23.468;2023-01-05T14:08:05;14.80;;;7.35;;
6203;SDS011;3135;42.602;23.468;2023-01-05T14:10:41;18.23;;;7.63;;
6203;SDS011;3135;42.602;23.468;2023-01-05T14:13:32;15.23;;;6.93;;
6203;SDS011;3135;42.602;23.468;2023-01-05T14:35:04;19.77;;;8.23;;
6203;SDS011;3135;42.602;23.468;2023-01-05T14:37:40;20.13;;;9.40;;
6203;SDS011;3135;42.602;23.468;2023-01-05T14:40:24;23.23;;;12.60;;
6203;SDS011;3135;42.602;23.468;2023-01-05T14:42:53;16.90;;;8.18;;
6203;SDS011;3135;42.602;23.468;2023-01-05T14:45:29;20.53;;;8.10;;
6203;SDS011;3135;42.602;23.468;2023-01-05T14:47:57;16.17;;;7.68;;
6203;SDS011;3135;42.602;23.468;2023-01-05T14:50:40;18.42;;;7.93;;
6203;SDS011;3135;42.602;23.468;2023-01-05T14:55:33;25.67;;;10.30;;
6203;SDS011;3135;42.602;23.468;2023-01-05T15:01:47;17.23;;;7.28;;
6203;SDS011;3135;42.602;23.468;2023-01-05T15:04:17;17.70;;;7.00;;
6203;SDS011;3135;42.602;23.468;2023-01-05T15:34:44;21.75;;;11.45;;
6203;SDS011;3135;42.602;23.468;2023-01-05T15:37:17;27.73;;;15.05;;
6203;SDS011;3135;42.602;23.468;2023-01-05T15:39:50;16.17;;;8.10;;
6203;SDS011;3135;42.602;23.468;2023-01-05T15:45:18;16.95;;;8.90;;
6203;SDS011;3135;42.602;23.468;2023-01-05T15:47:49;16.60;;;7.35;;
6203;SDS011;3135;42.602;23.468;2023-01-05T15:50:22;17.58;;;7.60;;
6203;SDS011;3135;42.602;23.468;2023-01-05T15:52:53;18.88;;;7.50;;
6203;SDS011;3135;42.602;23.468;2023-01-05T15:55:20;14.55;;;6.90;;
6203;SDS011;3135;42.602;23.468;2023-01-05T15:58:00;18.98;;;7.15;;
6203;SDS011;3135;42.602;23.468;2023-01-05T16:00:32;15.35;;;6.78;;
6203;SDS011;3135;42.602;23.468;2023-01-05T16:02:59;18.15;;;6.80;;
6203;SDS011;3135;42.602;23.468;2023-01-05T16:05:26;17.23;;;8.73;;
6203;SDS011;3135;42.602;23.468;2023-01-05T16:08:04;26.02;;;15.68;;
6203;SDS011;3135;42.602;23.468;2023-01-05T16:13:14;19.97;;;11.13;;
6203;SDS011;3135;42.602;23.468;2023-01-05T16:15:41;15.40;;;7.82;;
6203;SDS011;3135;42.602;23.468;2023-01-05T16:18:11;15.27;;;5.60;;
6203;SDS011;3135;42.602;23.468;2023-01-05T16:20:41;10.65;;;5.60;;
6203;SDS011;3135;42.602;23.468;2023-01-05T16:23:12;16.73;;;10.20;;
6203;SDS011;3135;42.602;23.468;2023-01-05T16:25:39;16.00;;;7.22;;
6203;SDS011;3135;42.602;23.468;2023-01-05T16:28:08;25.37;;;6.30;;
6203;SDS011;3135;42.602;23.468;2023-01-05T16:30:41;11.50;;;4.87;;
6203;SDS011;3135;42.602;23.468;2023-01-05T16:40:39;10.88;;;5.63;;
6203;SDS011;3135;42.602;23.468;2023-01-05T16:43:19;13.13;;;6.15;;
6203;SDS011;3135;42.602;23.468;2023-01-05T16:45:45;15.25;;;5.70;;
6203;SDS011;3135;42.602;23.468;2023-01-05T16:48:27;15.00;;;6.50;;
6203;SDS011;3135;42.602;23.468;2023-01-05T16:50:58;14.07;;;6.38;;
6203;SDS011;3135;42.602;23.468;2023-01-05T16:53:28;69.82;;;36.22;;
6203;SDS011;3135;42.602;23.468;2023-01-05T16:55:54;87.40;;;42.72;;
6203;SDS011;3135;42.602;23.468;2023-01-05T17:03:38;11.40;;;5.27;;
6203;SDS011;3135;42.602;23.468;2023-01-05T17:06:04;13.90;;;6.88;;
6203;SDS011;3135;42.602;23.468;2023-01-05T17:08:32;12.70;;;6.60;;
6203;SDS011;3135;42.602;23.468;2023-01-05T17:11:02;13.18;;;6.30;;
6203;SDS011;3135;42.602;23.468;2023-01-05T17:13:35;14.07;;;6.90;;
6203;SDS011;3135;42.602;23.468;2023-01-05T17:16:04;12.82;;;6.40;;
6203;SDS011;3135;42.602;23.468;2023-01-05T17:18:30;70.40;;;20.85;;
6203;SDS011;3135;42.602;23.468;2023-01-05T17:20:56;188.75;;;43.95;;
6203;SDS011;3135;42.602;23.468;2023-01-05T17:23:24;15.73;;;7.18;;
6203;SDS011;3135;42.602;23.468;2023-01-05T17:25:55;17.13;;;7.32;;
6203;SDS011;3135;42.602;23.468;2023-01-05T17:28:22;16.30;;;7.90;;
6203;SDS011;3135;42.602;23.468;2023-01-05T17:30:48;11.93;;;6.50;;
6203;SDS011;3135;42.602;23.468;2023-01-05T17:33:14;11.95;;;6.50;;
6203;SDS011;3135;42.602;23.468;2023-01-05T17:35:41;15.57;;;7.70;;
6203;SDS011;3135;42.602;23.468;2023-01-05T17:38:09;17.27;;;7.82;;
6203;SDS011;3135;42.602;23.468;2023-01-05T17:40:35;16.42;;;8.70;;
6203;SDS011;3135;42.602;23.468;2023-01-05T17:43:01;16.67;;;8.03;;
6203;SDS011;3135;42.602;23.468;2023-01-05T17:45:27;16.50;;;7.70;;
6203;SDS011;3135;42.602;23.468;2023-01-05T17:47:53;18.25;;;8.07;;
6203;SDS011;3135;42.602;23.468;2023-01-05T17:50:20;17.33;;;8.00;;
6203;SDS011;3135;42.602;23.468;2023-01-05T17:52:55;23.83;;;12.52;;
6203;SDS011;3135;42.602;23.468;2023-01-05T17:55:21;78.28;;;46.33;;
6203;SDS011;3135;42.602;23.468;2023-01-05T17:57:48;51.43;;;30.10;;
6203;SDS011;3135;42.602;23.468;2023-01-05T18:00:14;43.60;;;25.73;;
6203;SDS011;3135;42.602;23.468;2023-01-05T18:02:41;52.27;;;30.60;;
6203;SDS011;3135;42.602;23.468;2023-01-05T18:05:07;37.90;;;22.08;;
6203;SDS011;3135;42.602;23.468;2023-01-05T18:07:35;34.17;;;18.58;;
6203;SDS011;3135;42.602;23.468;2023-01-05T18:10:02;55.87;;;32.40;;
6203;SDS011;3135;42.602;23.468;2023-01-05T18:12:28;39.10;;;21.70;;